createdAt,value
2018-11-04T00:00:02.771Z,3.77
2018-11-04T00:05:00.101Z,3.32
2018-11-04T00:09:58.856Z,3.50
2018-11-04T00:14:56.311Z,3.41
2018-11-04T00:19:54.853Z,3.09
2018-11-04T00:24:52.349Z,2.91
2018-11-04T00:29:49.977Z,2.80
2018-11-04T00:34:47.363Z,2.93
2018-11-04T00:39:44.790Z,2.86
2018-11-04T00:44:42.240Z,2.72
2018-11-04T00:49:39.664Z,2.70
2018-11-04T00:54:37.102Z,2.82
2018-11-04T00:59:34.535Z,2.83
2018-11-04T01:04:31.952Z,2.94
2018-11-04T01:09:32.392Z,2.59
2018-11-04T01:14:29.909Z,2.70
2018-11-04T01:19:27.328Z,2.89
2018-11-04T01:24:24.831Z,2.78
2018-11-04T01:29:22.192Z,2.77
2018-11-04T01:34:19.644Z,2.81
2018-11-04T01:39:17.063Z,2.73
2018-11-04T01:44:14.496Z,2.51
2018-11-04T01:49:11.969Z,2.76
2018-11-04T01:54:09.398Z,2.77
2018-11-04T01:59:06.894Z,2.62
2018-11-04T02:04:04.604Z,2.61
2018-11-04T02:09:02.122Z,2.91
2018-11-04T02:13:59.546Z,2.64
2018-11-04T02:18:57.009Z,2.28
2018-11-04T02:23:54.428Z,2.67
2018-11-04T02:28:51.851Z,2.86
2018-11-04T02:33:49.292Z,2.88
2018-11-04T02:38:46.708Z,3.05
2018-11-04T02:43:44.121Z,2.96
2018-11-04T02:48:41.543Z,2.88
2018-11-04T02:53:38.977Z,2.96
2018-11-04T02:58:36.421Z,3.18
2018-11-04T03:03:33.848Z,3.01
2018-11-04T03:08:31.273Z,2.88
2018-11-04T03:13:28.756Z,3.12
2018-11-04T03:18:26.198Z,3.00
2018-11-04T03:23:23.640Z,2.76
2018-11-04T03:28:21.102Z,3.13
2018-11-04T03:33:18.536Z,3.07
2018-11-04T03:38:15.968Z,3.12
2018-11-04T03:43:13.408Z,3.29
2018-11-04T03:48:10.845Z,3.34
2018-11-04T03:53:08.307Z,3.30
2018-11-04T03:58:05.742Z,3.44
2018-11-04T04:03:03.186Z,3.20
2018-11-04T04:08:00.608Z,3.36
2018-11-04T04:12:58.074Z,3.27
2018-11-04T04:17:55.510Z,3.22
2018-11-04T04:22:52.950Z,3.33
2018-11-04T04:27:50.397Z,3.32
2018-11-04T04:32:47.833Z,3.57
2018-11-04T04:37:45.292Z,3.48
2018-11-04T04:42:42.721Z,3.16
2018-11-04T04:47:40.148Z,3.43
2018-11-04T04:52:37.581Z,3.73
2018-11-04T04:57:35.016Z,3.96
2018-11-04T05:02:32.456Z,3.88
2018-11-04T05:07:29.893Z,3.83
2018-11-04T05:12:27.402Z,4.28
2018-11-04T05:17:24.856Z,4.47
2018-11-04T05:22:22.345Z,4.57
2018-11-04T05:27:19.776Z,4.74
2018-11-04T05:32:17.209Z,4.80
2018-11-04T05:37:14.693Z,4.93
2018-11-04T05:42:12.131Z,4.96
2018-11-04T05:47:09.605Z,5.20
2018-11-04T05:52:07.094Z,5.14
2018-11-04T05:57:05.233Z,5.35
2018-11-04T06:02:02.692Z,5.55
2018-11-04T06:07:00.313Z,5.68
2018-11-04T06:11:58.250Z,5.78
2018-11-04T06:16:56.666Z,5.93
2018-11-04T06:21:54.139Z,5.77
2018-11-04T06:26:51.612Z,5.73
2018-11-04T06:31:49.076Z,5.97
2018-11-04T06:36:46.540Z,6.22
2018-11-04T06:41:43.996Z,6.51
2018-11-04T06:46:42.627Z,6.60
2018-11-04T06:51:40.091Z,6.98
2018-11-04T06:56:37.590Z,7.16
2018-11-04T07:01:35.053Z,7.26
2018-11-04T07:06:32.520Z,7.34
2018-11-04T07:11:30.005Z,7.57
2018-11-04T07:16:32.111Z,7.74
2018-11-04T07:21:29.555Z,8.05
2018-11-04T07:26:27.023Z,8.08
2018-11-04T07:31:24.558Z,8.11
2018-11-04T07:36:22.058Z,8.30
2018-11-04T07:41:19.980Z,8.42
2018-11-04T07:46:23.271Z,8.33
2018-11-04T07:51:20.774Z,8.56
2018-11-04T07:56:18.205Z,8.66
2018-11-04T08:01:15.759Z,8.73
2018-11-04T08:06:13.202Z,8.80
2018-11-04T08:11:10.693Z,8.99
2018-11-04T08:16:12.974Z,9.27
2018-11-04T08:21:10.416Z,9.29
2018-11-04T08:26:07.914Z,9.41
2018-11-04T08:31:05.569Z,9.52
2018-11-04T08:36:03.040Z,9.56
2018-11-04T08:41:00.520Z,9.69
2018-11-04T08:46:09.631Z,9.71
2018-11-04T08:51:07.483Z,9.91
2018-11-04T08:56:05.220Z,9.98
2018-11-04T09:01:02.671Z,10.22
2018-11-04T09:06:00.173Z,10.34
2018-11-04T09:10:57.614Z,10.44
2018-11-04T09:16:02.884Z,10.52
2018-11-04T09:21:00.495Z,10.62
2018-11-04T09:25:57.956Z,10.71
2018-11-04T09:30:55.408Z,10.78
2018-11-04T09:35:53.116Z,10.92
2018-11-04T09:40:50.366Z,10.97
2018-11-04T09:46:01.878Z,11.10
2018-11-04T09:51:02.753Z,11.30
2018-11-04T09:56:02.531Z,11.53
2018-11-04T10:01:00.118Z,11.57
2018-11-04T10:05:57.653Z,11.74
2018-11-04T10:10:55.108Z,11.63
2018-11-04T10:15:55.298Z,11.73
2018-11-04T10:20:53.395Z,11.72
2018-11-04T10:25:50.391Z,11.75
2018-11-04T10:30:47.865Z,11.89
2018-11-04T10:35:45.345Z,11.88
2018-11-04T10:40:42.780Z,11.96
2018-11-04T10:45:43.456Z,12.04
2018-11-04T10:50:40.978Z,12.27
2018-11-04T10:55:38.489Z,12.13
2018-11-04T11:00:41.638Z,12.23
2018-11-04T11:05:39.097Z,12.28
2018-11-04T11:10:36.573Z,12.34
2018-11-04T11:15:34.032Z,12.35
2018-11-04T11:20:31.518Z,12.34
2018-11-04T11:25:28.953Z,12.43
2018-11-04T11:30:26.456Z,12.58
2018-11-04T11:35:23.913Z,12.72
2018-11-04T11:40:21.408Z,12.99
2018-11-04T11:45:22.468Z,12.94
2018-11-04T11:50:19.926Z,12.85
2018-11-04T11:55:21.269Z,12.71
2018-11-04T12:00:23.559Z,12.86
2018-11-04T12:10:29.132Z,12.92
2018-11-04T12:15:26.661Z,12.77
2018-11-04T12:20:24.100Z,12.72
2018-11-04T12:25:21.571Z,12.80
2018-11-04T12:30:19.090Z,12.81
2018-11-04T12:35:16.600Z,12.95
2018-11-04T12:40:14.075Z,12.85
2018-11-04T12:45:12.485Z,12.95
2018-11-04T12:50:10.876Z,13.05
2018-11-04T12:55:09.861Z,13.03
2018-11-04T13:00:10.617Z,13.09
2018-11-04T13:05:09.034Z,12.99
2018-11-04T13:10:08.369Z,12.98
2018-11-04T13:15:06.558Z,13.01
2018-11-04T13:20:04.384Z,13.02
2018-11-04T13:25:01.856Z,12.99
2018-11-04T13:29:59.332Z,13.01
2018-11-04T13:34:56.848Z,12.82
2018-11-04T13:39:54.313Z,12.75
2018-11-04T13:44:51.824Z,12.76
2018-11-04T13:49:49.250Z,12.77
2018-11-04T13:54:47.046Z,12.78
2018-11-04T13:59:44.515Z,12.85
2018-11-04T14:04:41.958Z,12.70
2018-11-04T14:09:39.418Z,12.76
2018-11-04T14:14:36.872Z,12.79
2018-11-04T14:19:34.392Z,12.78
2018-11-04T14:24:31.856Z,12.76
2018-11-04T14:29:29.301Z,12.78
2018-11-04T14:34:26.748Z,12.70
2018-11-04T14:39:24.222Z,12.62
2018-11-04T14:44:21.687Z,12.67
2018-11-04T14:49:19.221Z,12.60
2018-11-04T14:54:17.138Z,12.50
2018-11-04T14:59:14.633Z,12.52
2018-11-04T15:04:12.097Z,12.36
2018-11-04T15:09:09.584Z,12.38
2018-11-04T15:14:07.064Z,12.34
2018-11-04T15:19:04.760Z,12.24
2018-11-04T15:24:02.218Z,12.15
2018-11-04T15:28:59.658Z,12.01
2018-11-04T15:33:57.152Z,12.05
2018-11-04T15:38:54.600Z,11.97
2018-11-04T15:43:52.145Z,11.92
2018-11-04T15:48:49.720Z,11.82
2018-11-04T15:53:47.192Z,11.81
2018-11-04T15:58:44.631Z,11.70
2018-11-04T16:03:42.092Z,11.73
2018-11-04T16:08:39.550Z,11.82
2018-11-04T16:13:37.012Z,11.72
2018-11-04T16:18:34.554Z,11.55
2018-11-04T16:23:32.034Z,11.66
2018-11-04T16:28:30.332Z,11.68
2018-11-04T16:33:27.862Z,11.74
2018-11-04T16:38:25.327Z,11.75
2018-11-04T16:43:22.850Z,11.72
2018-11-04T16:48:20.224Z,11.78
2018-11-04T16:53:17.661Z,11.81
2018-11-04T16:58:15.141Z,11.77
2018-11-04T17:03:12.598Z,11.81
2018-11-04T17:08:10.109Z,11.79
2018-11-04T17:13:07.580Z,11.84
2018-11-04T17:18:05.173Z,11.70
2018-11-04T17:23:02.716Z,11.82
2018-11-04T17:28:00.213Z,11.77
2018-11-04T17:32:57.696Z,11.80
2018-11-04T17:37:55.349Z,11.79
2018-11-04T17:42:53.029Z,11.78
2018-11-04T17:47:50.549Z,11.75
2018-11-04T17:52:48.019Z,11.71
2018-11-04T17:57:45.535Z,11.68
2018-11-04T18:02:43.303Z,11.71
2018-11-04T18:07:41.440Z,11.67
2018-11-04T18:12:38.865Z,11.69
2018-11-04T18:17:36.318Z,11.61
2018-11-04T18:22:34.824Z,11.62
2018-11-04T18:27:32.273Z,11.60
2018-11-04T18:32:29.759Z,11.56
2018-11-04T18:37:27.373Z,11.35
2018-11-04T18:42:24.942Z,11.46
2018-11-04T18:47:22.488Z,11.62
2018-11-04T18:52:19.997Z,11.51
2018-11-04T18:57:17.541Z,11.51
2018-11-04T19:02:14.970Z,11.49
2018-11-04T19:07:12.450Z,11.35
2018-11-04T19:12:09.944Z,11.48
2018-11-04T19:17:07.374Z,11.41
2018-11-04T19:22:04.986Z,11.41
2018-11-04T19:27:02.521Z,11.44
2018-11-04T19:31:59.969Z,11.46
2018-11-04T19:36:57.466Z,11.40
2018-11-04T19:41:54.921Z,11.40
2018-11-04T19:46:53.094Z,11.33
2018-11-04T19:51:50.636Z,11.29
2018-11-04T19:56:48.161Z,11.29
2018-11-04T20:01:45.541Z,11.35
2018-11-04T20:06:45.309Z,11.28
2018-11-04T20:11:43.413Z,11.31
2018-11-04T20:16:42.021Z,11.31
2018-11-04T20:21:39.581Z,11.31
2018-11-04T20:26:37.001Z,11.28
2018-11-04T20:31:40.120Z,11.23
2018-11-04T20:36:37.684Z,11.26
2018-11-04T20:41:35.180Z,11.16
2018-11-04T20:46:33.886Z,11.20
2018-11-04T20:51:31.366Z,11.19
2018-11-04T20:56:34.320Z,11.13
2018-11-04T21:01:31.860Z,11.16
2018-11-04T21:06:29.380Z,11.12
2018-11-04T21:11:27.090Z,11.13
2018-11-04T21:16:26.469Z,11.10
2018-11-04T21:21:24.012Z,11.11
2018-11-04T21:26:21.775Z,11.07
2018-11-04T21:31:21.166Z,11.08
2018-11-04T21:36:21.476Z,11.04
2018-11-04T21:41:19.109Z,11.01
2018-11-04T21:46:23.494Z,11.01
2018-11-04T21:51:21.055Z,10.94
2018-11-04T21:56:18.506Z,10.83
2018-11-04T22:01:15.985Z,10.83
2018-11-04T22:06:13.453Z,10.79
2018-11-04T22:11:10.896Z,10.83
2018-11-04T22:16:12.541Z,10.75
2018-11-04T22:21:10.059Z,10.84
2018-11-04T22:26:07.567Z,10.70
2018-11-04T22:31:05.024Z,10.72
2018-11-04T22:36:02.501Z,10.75
2018-11-04T22:40:59.975Z,10.69
2018-11-04T22:46:06.457Z,10.59
2018-11-04T22:51:03.929Z,10.60
2018-11-04T22:56:01.417Z,10.60
2018-11-04T23:00:59.887Z,10.56
2018-11-04T23:06:01.837Z,10.55
2018-11-04T23:10:59.286Z,10.49
2018-11-04T23:16:00.703Z,10.43
2018-11-04T23:20:58.203Z,10.50
2018-11-04T23:25:55.651Z,10.49
2018-11-04T23:30:53.117Z,10.39
2018-11-04T23:35:50.552Z,10.35
2018-11-04T23:40:48.150Z,10.34
2018-11-04T23:45:47.552Z,10.32
2018-11-04T23:50:50.180Z,10.24
2018-11-04T23:55:47.606Z,10.20
